createdAt,value
2022-07-29T00:04:41.770Z,60.42
2022-07-29T00:25:02.546Z,65.21
2022-07-29T00:45:23.273Z,55.75
2022-07-29T01:05:50.188Z,56.31
2022-07-29T01:26:11.493Z,56.65
2022-07-29T01:46:32.571Z,56.14
2022-07-29T02:06:53.480Z,55.75
2022-07-29T02:26:57.096Z,54.78
2022-07-29T02:46:58.984Z,56.61
2022-07-29T03:07:00.759Z,56.62
2022-07-29T03:27:02.752Z,59.03
2022-07-29T03:47:05.720Z,58.42
2022-07-29T04:07:07.634Z,54.17
2022-07-29T04:27:09.410Z,47.65
2022-07-29T04:47:11.232Z,44.28
2022-07-29T05:07:14.301Z,43.08
2022-07-29T05:27:16.141Z,40.73
2022-07-29T05:47:18.001Z,41.28
2022-07-29T06:07:19.938Z,40.42
2022-07-29T06:27:21.677Z,38.94
2022-07-29T06:47:23.625Z,39.86
2022-07-29T07:07:25.622Z,37.38
2022-07-29T07:27:27.514Z,40.80
2022-07-29T07:47:29.186Z,41.41
2022-07-29T08:07:31.291Z,41.23
2022-07-29T08:27:43.429Z,42.48
2022-07-29T08:47:45.677Z,40.31
2022-07-29T09:07:47.473Z,39.88
2022-07-29T09:27:49.322Z,39.57
2022-07-29T09:47:51.415Z,36.88
2022-07-29T10:07:54.135Z,35.75
2022-07-29T10:27:56.861Z,35.53
2022-07-29T10:48:17.385Z,34.87
2022-07-29T11:08:26.393Z,35.32
2022-07-29T11:28:29.393Z,34.57
2022-07-29T11:48:32.100Z,35.03
2022-07-29T12:08:53.066Z,32.73
2022-07-29T12:28:54.820Z,34.20
2022-07-29T12:49:00.755Z,36.95
2022-07-29T13:09:06.094Z,34.49
2022-07-29T13:29:08.337Z,31.18
2022-07-29T13:49:10.394Z,33.41
2022-07-29T14:09:12.614Z,33.70
2022-07-29T14:29:14.514Z,38.96
2022-07-29T14:49:17.283Z,69.03
2022-07-29T15:09:19.424Z,66.58
2022-07-29T15:29:21.284Z,70.32
2022-07-29T15:49:23.026Z,72.11
2022-07-29T16:09:43.628Z,74.63
2022-07-29T16:29:48.725Z,73.98
2022-07-29T16:50:09.338Z,72.45
2022-07-29T17:10:15.934Z,72.61
2022-07-29T17:30:17.844Z,69.76
2022-07-29T17:50:19.863Z,67.75
2022-07-29T18:10:21.696Z,67.16
2022-07-29T18:30:23.866Z,67.89
2022-07-29T18:50:29.200Z,67.66
2022-07-29T19:10:31.518Z,75.00
2022-07-29T19:30:39.122Z,78.04
2022-07-29T19:50:52.538Z,73.74
2022-07-29T20:10:54.413Z,69.64
2022-07-29T20:30:56.243Z,62.81
2022-07-29T20:51:17.170Z,63.46
2022-07-29T21:11:21.117Z,61.97
2022-07-29T21:31:59.908Z,62.35
2022-07-29T21:52:02.184Z,58.05
2022-07-29T22:12:03.901Z,75.75
2022-07-29T22:32:05.567Z,82.40
2022-07-29T22:52:07.428Z,75.36
2022-07-29T23:12:09.313Z,73.31
2022-07-29T23:32:30.115Z,75.49
2022-07-29T23:52:50.315Z,85.29
